Time;durP1;ratioP1;P1;durP2;ratioP2;P2;SDS_P1;SDS_P2;PMS_P1;PMS_P2;Temp;Humidity;BMP_temperature;BMP_pressure;BME280_temperature;BME280_humidity;BME280_pressure;Samples;Min_cycle;Max_cycle;Signal;HPM_P1;HPM_P2
2021/07/31 07:35:00;;;;;;;6.58;5.00;;;;;;;25.73;59.29;97484.04;1871728;76;22332;-63
2021/07/31 07:37:28;;;;;;;8.13;5.58;;;;;;;25.76;58.02;97487.95;1827939;78;20868;-63
2021/07/31 07:39:59;;;;;;;6.97;4.75;;;;;;;25.87;57.45;97487.86;1828192;78;20840;-66
2021/07/31 07:42:25;;;;;;;6.90;4.42;;;;;;;26.00;56.64;97488.96;1834533;78;20983;-62
2021/07/31 07:44:52;;;;;;;5.78;4.78;;;;;;;26.09;56.67;97478.30;1827807;78;20952;-61
2021/07/31 07:47:20;;;;;;;6.15;4.95;;;;;;;26.20;56.57;97487.26;1827842;78;20899;-61
2021/07/31 07:49:47;;;;;;;8.70;4.83;;;;;;;26.28;56.37;97493.67;1827889;78;20868;-62
2021/07/31 07:52:14;;;;;;;6.17;5.20;;;;;;;26.36;56.67;97480.06;1828034;78;21857;-67
2021/07/31 07:54:42;;;;;;;5.70;5.03;;;;;;;26.48;56.87;97482.89;1827662;78;20935;-64
2021/07/31 07:57:09;;;;;;;5.35;4.20;;;;;;;26.70;56.43;97471.90;1827736;78;20856;-64
2021/07/31 07:59:36;;;;;;;4.92;4.42;;;;;;;26.70;56.43;97471.90;1827822;78;20920;-64
2021/07/31 08:02:04;;;;;;;7.12;4.58;;;;;;;26.80;55.94;97468.30;1827798;78;21004;-63
2021/07/31 08:04:34;;;;;;;4.65;4.15;;;;;;;26.88;56.17;97465.64;1827866;78;21659;-70
2021/07/31 08:07:03;;;;;;;4.72;4.30;;;;;;;26.99;55.49;97468.28;1827761;78;20911;-66
2021/07/31 08:09:31;;;;;;;4.85;4.30;;;;;;;27.16;53.73;97470.02;1827478;77;20975;-66
2021/07/31 08:11:58;;;;;;;8.00;4.20;;;;;;;27.16;53.73;97470.02;1799961;77;20876;-67
2021/07/31 08:14:24;;;;;;;5.20;4.25;;;;;;;27.24;54.04;97466.59;1822053;78;21486;-65
2021/07/31 08:16:51;;;;;;;4.65;4.25;;;;;;;27.32;54.10;97468.08;1827823;78;21059;-64
2021/07/31 08:19:18;;;;;;;6.60;4.12;;;;;;;27.41;53.80;97471.13;1828066;78;20852;-68
2021/07/31 08:21:44;;;;;;;8.65;4.50;;;;;;;27.47;53.48;97468.09;1821657;78;20951;-67
2021/07/31 08:24:11;;;;;;;7.00;4.50;;;;;;;27.52;53.04;97468.41;1795286;80;20856;-66
2021/07/31 08:26:38;;;;;;;9.50;4.15;;;;;;;27.59;53.57;97464.78;1795344;79;20888;-68
2021/07/31 08:29:04;;;;;;;9.75;4.30;;;;;;;27.65;52.95;97460.39;1813701;77;20958;-65
2021/07/31 08:31:32;;;;;;;6.97;4.03;;;;;;;27.73;52.21;97459.08;1758895;81;21037;-63
2021/07/31 08:33:58;;;;;;;5.60;3.77;;;;;;;27.80;51.64;97458.97;1757341;81;20903;-70
2021/07/31 08:36:25;;;;;;;7.22;4.10;;;;;;;27.86;51.31;97468.33;1792769;80;20932;-66
2021/07/31 08:38:52;;;;;;;4.90;4.28;;;;;;;27.88;51.30;97463.19;1792788;80;20983;-68
2021/07/31 08:41:21;;;;;;;9.60;4.42;;;;;;;27.89;51.62;97451.59;1755039;81;21071;-62
2021/07/31 08:43:48;;;;;;;8.00;4.45;;;;;;;27.96;52.39;97460.48;1754975;81;20867;-62
2021/07/31 08:46:15;;;;;;;7.58;4.90;;;;;;;28.05;52.32;97459.39;1754502;81;20911;-63
2021/07/31 08:48:42;;;;;;;6.95;4.42;;;;;;;28.13;51.95;97456.71;1754476;81;20946;-70
2021/07/31 08:51:09;;;;;;;10.18;4.58;;;;;;;28.19;51.55;97457.78;1755888;80;20891;-62
2021/07/31 08:53:37;;;;;;;6.55;4.35;;;;;;;28.29;51.13;97459.58;1772126;80;21761;-66
2021/07/31 08:56:05;;;;;;;7.50;4.28;;;;;;;28.37;50.41;97456.91;1775563;79;20990;-63
2021/07/31 08:58:31;;;;;;;5.20;4.05;;;;;;;28.45;49.81;97451.43;1784388;80;21018;-69
2021/07/31 09:00:58;;;;;;;5.30;3.83;;;;;;;28.52;49.40;97451.14;1784147;80;21030;-67
2021/07/31 09:03:25;;;;;;;4.92;3.80;;;;;;;28.58;49.46;97452.98;1784844;80;21486;-65
2021/07/31 09:05:53;;;;;;;7.53;3.60;;;;;;;28.65;48.90;97449.34;1782788;80;22253;-68
2021/07/31 09:08:20;;;;;;;4.45;3.75;;;;;;;28.69;48.65;97456.97;1763049;80;20970;-68
2021/07/31 09:10:47;;;;;;;6.95;3.90;;;;;;;28.71;48.87;97455.94;1754435;81;20899;-62
2021/07/31 09:13:17;;;;;;;7.72;4.10;;;;;;;28.77;49.18;97457.78;1753565;81;21057;-65
2021/07/31 09:15:53;;;;;;;4.28;3.75;;;;;;;28.88;49.05;97460.31;1753084;81;21018;-64
2021/07/31 09:18:35;;;;;;;6.08;4.10;;;;;;;28.89;48.83;97449.48;1753370;81;21146;-65
2021/07/31 09:21:16;;;;;;;11.22;4.00;;;;;;;28.94;49.13;97442.10;1753041;81;21565;-63
2021/07/31 09:23:48;;;;;;;5.47;3.80;;;;;;;29.05;49.13;97437.14;1753289;81;21037;-61
2021/07/31 09:26:38;;;;;;;4.12;3.72;;;;;;;29.16;48.86;97447.97;1753140;81;21618;-61
2021/07/31 09:29:12;;;;;;;5.42;3.77;;;;;;;29.28;47.53;97448.73;1754151;81;20935;-63
2021/07/31 09:31:51;;;;;;;5.70;3.75;;;;;;;29.33;46.83;97450.38;1753751;81;21517;-66
2021/07/31 09:34:34;;;;;;;6.95;3.37;;;;;;;29.38;45.75;97440.22;1750342;81;20907;-61
2021/07/31 09:37:12;;;;;;;5.03;3.52;;;;;;;29.46;45.01;97437.49;1746476;81;21462;-62
2021/07/31 09:39:59;;;;;;;4.65;3.35;;;;;;;29.57;45.36;97436.64;1746440;82;20927;-68
2021/07/31 09:42:37;;;;;;;9.00;3.77;;;;;;;29.69;44.11;97434.59;1746673;82;20983;-65
2021/07/31 09:45:11;;;;;;;5.78;3.83;;;;;;;29.79;44.83;97430.83;1746716;82;21469;-64
2021/07/31 09:48:03;;;;;;;6.70;3.62;;;;;;;29.74;44.79;97433.31;1746731;82;20883;-66
2021/07/31 09:50:43;;;;;;;8.33;3.90;;;;;;;29.61;45.42;97429.66;1745983;82;21490;-67
2021/07/31 09:53:17;;;;;;;5.37;3.72;;;;;;;29.46;45.48;97437.49;1746572;82;20943;-68
2021/07/31 09:55:48;;;;;;;4.85;3.90;;;;;;;29.35;45.27;97437.55;1746007;82;21462;-66
2021/07/31 09:58:18;;;;;;;4.33;3.77;;;;;;;29.25;45.53;97431.06;1746095;81;21310;-64
2021/07/31 10:00:48;;;;;;;7.60;3.83;;;;;;;29.27;45.85;97443.03;1746338;82;20892;-62
2021/07/31 10:03:15;;;;;;;5.17;3.83;;;;;;;29.37;45.44;97426.23;1745773;81;20884;-63
2021/07/31 10:05:43;;;;;;;5.05;3.12;;;;;;;29.51;45.90;97424.55;1746389;82;21510;-64
